createdAt,value
2023-05-19T00:00:47.538Z,59.30
2023-05-19T00:04:51.412Z,59.60
2023-05-19T00:09:11.419Z,59.70
2023-05-19T00:13:14.604Z,60.10
2023-05-19T00:17:17.649Z,59.90
2023-05-19T00:21:21.034Z,60.10
2023-05-19T00:25:23.829Z,60.30
2023-05-19T00:29:26.622Z,60.40
2023-05-19T00:33:29.432Z,60.80
2023-05-19T00:37:32.222Z,61.00
2023-05-19T00:41:36.404Z,61.20
2023-05-19T00:45:42.480Z,61.40
2023-05-19T00:49:53.950Z,62.00
2023-05-19T00:53:56.993Z,62.50
2023-05-19T00:58:00.783Z,62.60
2023-05-19T01:02:04.675Z,62.90
2023-05-19T01:06:08.930Z,63.30
2023-05-19T01:10:11.692Z,63.40
2023-05-19T01:14:17.297Z,64.40
2023-05-19T01:18:30.260Z,66.00
2023-05-19T01:22:55.120Z,66.70
2023-05-19T01:27:00.858Z,66.70
2023-05-19T01:31:06.299Z,66.60
2023-05-19T01:35:10.336Z,66.70
2023-05-19T01:39:14.321Z,67.00
2023-05-19T01:43:25.117Z,67.00
2023-05-19T01:47:29.794Z,67.50
2023-05-19T01:51:32.802Z,67.40
2023-05-19T01:55:50.033Z,67.40
2023-05-19T02:04:51.809Z,68.20
2023-05-19T02:10:03.992Z,68.60
2023-05-19T02:14:31.037Z,68.60
2023-05-19T02:18:35.428Z,68.80
2023-05-19T02:22:39.476Z,69.20
2023-05-19T02:26:42.726Z,69.30
2023-05-19T02:30:45.685Z,69.30
2023-05-19T02:34:48.568Z,69.40
2023-05-19T02:38:51.465Z,69.80
2023-05-19T02:42:54.185Z,70.00
2023-05-19T02:46:56.997Z,70.40
2023-05-19T02:50:59.840Z,70.70
2023-05-19T02:55:02.697Z,71.00
2023-05-19T02:59:06.311Z,70.90
2023-05-19T03:03:10.470Z,71.10
2023-05-19T03:07:13.660Z,71.20
2023-05-19T03:11:16.935Z,71.40
2023-05-19T03:15:20.953Z,71.60
2023-05-19T03:19:23.843Z,71.80
2023-05-19T03:23:27.315Z,72.00
2023-05-19T03:27:30.157Z,72.20
2023-05-19T03:31:33.163Z,72.20
2023-05-19T03:35:36.092Z,72.10
2023-05-19T03:39:39.271Z,72.20
2023-05-19T03:43:42.581Z,72.20
2023-05-19T03:47:47.656Z,72.30
2023-05-19T03:52:13.178Z,72.40
2023-05-19T03:56:29.195Z,72.30
2023-05-19T04:00:32.366Z,72.30
2023-05-19T04:04:35.834Z,72.30
2023-05-19T04:08:41.978Z,72.20
2023-05-19T04:12:44.913Z,72.10
2023-05-19T04:16:47.833Z,72.00
2023-05-19T04:20:51.235Z,72.00
2023-05-19T04:24:56.328Z,72.10
2023-05-19T04:29:01.895Z,72.30
2023-05-19T04:33:05.483Z,72.50
2023-05-19T04:37:10.388Z,72.70
2023-05-19T04:41:16.773Z,72.80
2023-05-19T04:45:20.212Z,72.70
2023-05-19T04:49:26.702Z,72.70
2023-05-19T04:53:30.314Z,72.60
2023-05-19T04:57:35.033Z,72.40
2023-05-19T05:01:40.538Z,72.40
2023-05-19T05:05:49.581Z,72.20
2023-05-19T05:09:52.967Z,72.20
2023-05-19T05:13:58.302Z,72.10
2023-05-19T05:18:05.093Z,72.10
2023-05-19T05:22:08.669Z,72.10
2023-05-19T05:26:19.989Z,72.10
2023-05-19T05:30:25.229Z,72.30
2023-05-19T05:34:29.353Z,72.30
2023-05-19T05:38:32.280Z,72.50
2023-05-19T05:42:35.726Z,72.60
2023-05-19T05:46:39.354Z,72.60
2023-05-19T05:50:45.935Z,72.60
2023-05-19T05:54:52.656Z,72.60
2023-05-19T05:58:56.884Z,72.30
2023-05-19T06:02:59.987Z,72.60
2023-05-19T06:07:03.086Z,73.10
2023-05-19T06:11:09.737Z,73.20
2023-05-19T06:15:15.579Z,73.00
2023-05-19T06:19:41.217Z,73.60
2023-05-19T06:23:44.397Z,74.00
2023-05-19T06:27:47.818Z,74.10
2023-05-19T06:31:51.901Z,73.80
2023-05-19T06:35:55.347Z,73.80
2023-05-19T06:39:58.379Z,73.90
2023-05-19T06:44:11.583Z,73.90
2023-05-19T06:48:14.799Z,73.90
2023-05-19T06:52:18.260Z,73.50
2023-05-19T06:56:23.005Z,73.20
2023-05-19T07:00:26.849Z,73.00
2023-05-19T07:04:31.018Z,72.70
2023-05-19T07:08:34.743Z,72.50
2023-05-19T07:12:39.486Z,72.30
2023-05-19T07:16:43.317Z,72.10
2023-05-19T07:20:46.410Z,71.90
2023-05-19T07:24:49.431Z,71.70
2023-05-19T07:28:53.514Z,71.60
2023-05-19T07:32:56.770Z,71.40
2023-05-19T07:37:00.605Z,71.10
2023-05-19T07:41:04.625Z,70.90
2023-05-19T07:45:10.972Z,70.80
2023-05-19T07:49:14.045Z,70.70
2023-05-19T07:53:18.936Z,70.60
2023-05-19T07:57:22.301Z,70.50
2023-05-19T08:01:25.145Z,70.40
2023-05-19T08:05:29.985Z,70.30
2023-05-19T08:09:32.868Z,70.10
2023-05-19T08:13:35.966Z,70.10
2023-05-19T08:17:39.059Z,70.00
2023-05-19T08:21:48.524Z,69.90
2023-05-19T08:25:53.594Z,69.70
2023-05-19T08:29:57.441Z,69.80
2023-05-19T08:34:00.266Z,69.90
2023-05-19T08:38:03.208Z,70.00
2023-05-19T08:42:08.031Z,70.00
2023-05-19T08:46:15.076Z,70.00
2023-05-19T08:50:27.602Z,70.10
2023-05-19T08:54:38.329Z,70.00
2023-05-19T08:58:44.159Z,70.00
2023-05-19T09:02:59.834Z,69.90
2023-05-19T09:07:04.604Z,70.00
2023-05-19T09:11:07.741Z,70.10
2023-05-19T09:15:11.984Z,70.20
2023-05-19T09:19:17.740Z,70.30
2023-05-19T09:23:21.130Z,70.40
2023-05-19T09:27:24.086Z,70.60
2023-05-19T09:31:33.590Z,70.50
2023-05-19T09:35:37.298Z,70.50
2023-05-19T09:39:40.081Z,70.30
2023-05-19T09:43:42.987Z,70.30
2023-05-19T09:47:45.802Z,70.40
2023-05-19T09:51:57.640Z,70.20
2023-05-19T09:56:02.231Z,70.60
2023-05-19T10:00:15.872Z,70.70
2023-05-19T10:04:21.234Z,70.70
2023-05-19T10:08:26.802Z,70.20
2023-05-19T10:12:31.218Z,69.90
2023-05-19T10:16:35.252Z,70.00
2023-05-19T10:20:39.875Z,70.00
2023-05-19T10:24:43.933Z,70.20
2023-05-19T10:28:47.751Z,70.10
2023-05-19T10:32:52.211Z,70.20
2023-05-19T10:37:12.800Z,70.10
2023-05-19T10:41:49.480Z,70.10
2023-05-19T10:45:53.977Z,70.00
2023-05-19T10:49:57.364Z,70.00
2023-05-19T10:54:11.468Z,70.00
2023-05-19T10:58:15.295Z,69.90
2023-05-19T11:02:41.505Z,69.90
2023-05-19T11:06:52.109Z,69.80
2023-05-19T11:10:55.019Z,69.90
2023-05-19T11:14:59.573Z,69.80
2023-05-19T11:19:02.779Z,69.60
2023-05-19T11:23:18.152Z,69.50
2023-05-19T11:27:28.904Z,69.30
2023-05-19T11:31:32.284Z,69.30
2023-05-19T11:35:36.852Z,69.30
2023-05-19T11:39:41.144Z,69.20
2023-05-19T11:43:44.166Z,68.90
2023-05-19T11:48:01.208Z,68.90
2023-05-19T11:52:05.948Z,68.90
2023-05-19T11:56:08.851Z,68.60
2023-05-19T12:00:12.797Z,68.40
2023-05-19T12:04:15.684Z,68.30
2023-05-19T12:08:18.969Z,68.10
2023-05-19T12:12:22.907Z,68.10
2023-05-19T12:16:36.132Z,67.80
2023-05-19T12:20:39.384Z,68.20
2023-05-19T12:24:43.641Z,68.00
2023-05-19T12:28:46.789Z,67.70
2023-05-19T12:32:51.922Z,67.60
2023-05-19T12:36:55.097Z,67.70
2023-05-19T12:41:00.511Z,67.80
2023-05-19T12:45:04.921Z,67.80
2023-05-19T12:49:09.190Z,67.90
2023-05-19T12:53:13.395Z,67.80
2023-05-19T12:57:21.568Z,67.50
2023-05-19T13:01:25.109Z,67.30
2023-05-19T13:05:29.332Z,67.40
2023-05-19T13:09:35.278Z,67.50
2023-05-19T13:13:38.147Z,67.50
2023-05-19T13:17:41.088Z,67.10
2023-05-19T13:21:44.280Z,66.70
2023-05-19T13:25:47.054Z,66.60
2023-05-19T13:29:49.910Z,66.30
2023-05-19T13:33:52.909Z,65.90
2023-05-19T13:37:55.798Z,65.60
2023-05-19T13:41:58.670Z,65.50
2023-05-19T13:46:01.448Z,65.40
2023-05-19T13:50:05.294Z,65.10
2023-05-19T13:54:08.237Z,65.10
2023-05-19T13:58:11.332Z,65.10
2023-05-19T14:02:14.602Z,65.00
2023-05-19T14:06:17.536Z,65.00
2023-05-19T14:10:20.471Z,64.90
2023-05-19T14:14:23.379Z,64.80
2023-05-19T14:18:26.718Z,64.70
2023-05-19T14:22:29.565Z,64.90
2023-05-19T14:26:32.409Z,64.90
2023-05-19T14:30:35.694Z,65.00
2023-05-19T14:34:38.809Z,65.10
2023-05-19T14:38:41.667Z,65.00
2023-05-19T14:42:44.460Z,65.10
2023-05-19T14:46:47.273Z,65.20
2023-05-19T14:50:50.465Z,65.50
2023-05-19T14:54:53.401Z,65.30
2023-05-19T14:58:56.533Z,65.40
2023-05-19T15:02:59.648Z,65.50
2023-05-19T15:11:08.363Z,65.70
2023-05-19T15:15:12.240Z,65.80
2023-05-19T15:19:15.629Z,66.00
2023-05-19T15:23:39.698Z,66.20
2023-05-19T15:27:42.608Z,66.30
2023-05-19T15:31:47.358Z,66.50
2023-05-19T15:35:52.222Z,66.70
2023-05-19T15:39:55.297Z,66.70
2023-05-19T15:44:00.425Z,66.60
2023-05-19T15:48:03.887Z,66.50
2023-05-19T15:52:06.939Z,66.50
2023-05-19T15:56:09.771Z,66.40
2023-05-19T16:00:13.222Z,66.20
2023-05-19T16:04:17.269Z,66.20
2023-05-19T16:08:20.326Z,66.10
2023-05-19T16:12:24.394Z,66.20
2023-05-19T16:16:27.819Z,66.10
2023-05-19T16:20:31.324Z,66.10
2023-05-19T16:24:34.346Z,66.20
2023-05-19T16:28:37.419Z,66.20
2023-05-19T16:32:40.716Z,66.30
2023-05-19T16:36:47.207Z,66.30
2023-05-19T16:40:50.284Z,66.30
2023-05-19T16:44:53.552Z,66.40
2023-05-19T16:48:56.794Z,66.60
2023-05-19T16:53:00.403Z,66.60
2023-05-19T16:57:03.906Z,66.60
2023-05-19T17:01:06.938Z,66.50
2023-05-19T17:05:24.237Z,66.60
2023-05-19T17:09:37.205Z,66.40
2023-05-19T17:13:42.384Z,66.30
2023-05-19T17:17:45.258Z,66.30
2023-05-19T17:21:48.774Z,66.30
2023-05-19T17:25:55.253Z,66.30
2023-05-19T17:30:03.169Z,66.50
2023-05-19T17:34:06.340Z,66.80
2023-05-19T17:38:09.295Z,67.10
2023-05-19T17:42:12.198Z,67.50
2023-05-19T17:46:15.076Z,67.90
2023-05-19T17:50:18.194Z,68.10
2023-05-19T17:54:22.258Z,68.40
2023-05-19T17:58:25.387Z,68.50
2023-05-19T18:02:28.465Z,68.60
2023-05-19T18:06:32.376Z,68.70
2023-05-19T18:10:40.897Z,68.80
2023-05-19T18:14:44.004Z,69.00
2023-05-19T18:18:50.576Z,69.00
2023-05-19T18:22:55.053Z,69.10
2023-05-19T18:26:58.021Z,69.20
2023-05-19T18:31:02.677Z,69.30
2023-05-19T18:35:06.125Z,69.30
2023-05-19T18:39:09.740Z,69.40
2023-05-19T18:43:23.793Z,69.40
2023-05-19T18:47:39.592Z,69.50
2023-05-19T18:51:42.636Z,69.50
2023-05-19T18:55:48.522Z,69.50
2023-05-19T18:59:54.524Z,69.70
2023-05-19T19:03:57.898Z,69.80
2023-05-19T19:08:01.517Z,69.90
2023-05-19T19:12:06.291Z,69.80
2023-05-19T19:16:10.848Z,69.80
2023-05-19T19:20:15.553Z,69.90
2023-05-19T19:24:20.049Z,69.90
2023-05-19T19:28:24.906Z,70.00
2023-05-19T19:32:32.244Z,70.10
2023-05-19T19:36:37.243Z,70.30
2023-05-19T19:40:40.388Z,70.30
2023-05-19T19:44:43.644Z,70.40
2023-05-19T19:48:47.238Z,70.40
2023-05-19T19:52:54.580Z,70.50
2023-05-19T19:56:57.578Z,70.50
2023-05-19T20:01:04.358Z,70.50
2023-05-19T20:05:08.195Z,70.50
2023-05-19T20:09:15.158Z,70.50
2023-05-19T20:13:22.145Z,70.40
2023-05-19T20:17:25.957Z,70.40
2023-05-19T20:21:30.301Z,70.50
2023-05-19T20:26:12.549Z,70.50
2023-05-19T20:30:19.826Z,70.50
2023-05-19T20:34:23.658Z,70.40
2023-05-19T20:38:27.396Z,70.50
2023-05-19T20:42:30.544Z,70.40
2023-05-19T20:46:33.839Z,70.30
2023-05-19T20:50:37.672Z,70.20
2023-05-19T20:54:48.561Z,70.20
2023-05-19T20:58:54.859Z,70.30
2023-05-19T21:02:58.123Z,70.40
2023-05-19T21:07:01.458Z,70.40
2023-05-19T21:11:04.834Z,70.60
2023-05-19T21:15:08.455Z,70.60
2023-05-19T21:19:11.550Z,70.70
2023-05-19T21:23:14.652Z,70.80
2023-05-19T21:27:17.431Z,70.90
2023-05-19T21:31:20.437Z,71.00
2023-05-19T21:35:23.543Z,71.20
2023-05-19T21:39:26.770Z,71.30
2023-05-19T21:43:29.885Z,71.40
2023-05-19T21:47:33.003Z,71.40
2023-05-19T21:51:36.808Z,71.60
2023-05-19T21:55:41.628Z,71.80
2023-05-19T21:59:45.113Z,71.90
2023-05-19T22:03:48.850Z,72.00
2023-05-19T22:07:52.003Z,72.10
2023-05-19T22:11:55.021Z,72.20
2023-05-19T22:15:58.774Z,72.40
2023-05-19T22:20:01.701Z,72.40
2023-05-19T22:24:04.831Z,72.40
2023-05-19T22:28:08.441Z,72.30
2023-05-19T22:32:12.257Z,72.20
2023-05-19T22:36:16.402Z,72.10
2023-05-19T22:40:19.516Z,72.00
2023-05-19T22:44:22.602Z,72.00
2023-05-19T22:48:25.416Z,72.00
2023-05-19T22:52:28.306Z,72.00
2023-05-19T22:56:31.374Z,71.90
2023-05-19T23:00:34.453Z,71.90
2023-05-19T23:04:37.781Z,71.70
2023-05-19T23:08:40.977Z,71.60
2023-05-19T23:12:43.904Z,71.40
2023-05-19T23:16:46.926Z,71.20
2023-05-19T23:20:49.859Z,71.10
2023-05-19T23:24:52.846Z,71.00
2023-05-19T23:28:56.012Z,70.90
2023-05-19T23:32:58.980Z,70.80
2023-05-19T23:37:01.898Z,70.60
2023-05-19T23:41:06.039Z,70.50
2023-05-19T23:45:09.259Z,70.40
2023-05-19T23:49:12.287Z,70.40
2023-05-19T23:53:15.233Z,70.50
2023-05-19T23:57:18.163Z,70.50
